Terminal Aerodrome Forecast
Issued by NWS Grand Junction, CO

Home | Current Version | Previous Version | Text Only | Print | Product List | Glossary On
Versions: 1 2 3 4 5 6 7 8 9 10 11 12 13
000
FTUS45 KGJT 230538
TAFGJT
TAF
KGJT 230538Z 2306/2406 04008KT P6SM BKN090 BKN120
      TEMPO 2306/2308 03010G20KT P6SM -RA BKN070
     FM231200 10006KT P6SM FEW250
     FM232000 23007KT P6SM FEW250
     FM232300 29008KT P6SM FEW250
     FM240200 04007KT P6SM FEW250=

USA.gov is the U.S. government's official web portal to all federal, state and local government web resources and services.